Avon, CO

2:15 AM MDT on October 01, 2014 (GMT -0600)
WildRidge - Neighborhood | Change Station
CLOSE
Current Station
Personal Weather Station
Location: Avon, CO
Elevation: 8156 ft
Nearby Weather Stations

Elev 8156 ft 39.66 °N, 106.55 °W | Updated 24 seconds ago

Mostly Cloudy
Mostly Cloudy
35.7 °F
Feels Like 36 °F
N
0.0
Wind Variable Wind from South
Gusts 15.0 mph

Today
High -- | Low -- °F
--% Chance of Precip.
Yesterday
High -- | Low -- °F
Precip. -- in
7:02 AM 6:48 PM
Waxing Crescent, 45% visible
Pressure 30.04 in
Visibility 10.0 miles
Clouds Few 800 ft
Scattered Clouds 5000 ft
Overcast 9500 ft
Windchill 36 °F
Dew Point 35 °F
Humidity 96%
Rainfall 0.03 in
Snow Depth Not available.
UV 0 out of 12
Pollen 3.50 out of 12
Air Quality Not available.
Flu Activity Not available.
METAR KEGE 010755Z AUTO 03005KT 10SM FEW008 SCT050 OVC095 06/06 A3004 RMK AO1 P0003

More Conditions Fewer Conditions

Pressure 30.04 in
Visibility 10.0 miles
Clouds Few 800 ft
Scattered Clouds 5000 ft
Overcast 9500 ft
Windchill 36 °F
Dew Point 35 °F
Humidity 96%
Rainfall 0.03 in
Snow Depth Not available.
UV 0 out of 12
Pollen 3.50 out of 12
Air Quality Not available.
Flu Activity Not available.
METAR KEGE 010755Z AUTO 03005KT 10SM FEW008 SCT050 OVC095 06/06 A3004 RMK AO1 P0003

More Conditions Fewer Conditions

10-Day Weather Forecast

Almanac

Astronomy

Oct. 01, 2014 Rise Set
Actual Time 7:02 AM MDT 6:48 PM MDT
Civil Twilight 6:35 AM MDT 7:15 PM MDT
Nautical Twilight 6:04 AM MDT 7:46 PM MDT
Astronomical Twilight 5:32 AM MDT 8:17 PM MDT
Moon 2:04 PM MDT No Moon Set
Length of Visible Light 12h 39m
Length of Day
11h 46m
Tomorrow will be 2m 34s shorter.
Waxing Crescent, 45% of the Moon is Illuminated
Today
Waxing Crescent
Oct 1
First Quarter
Oct 8
Full
Oct 15
Last Quarter
Oct 23
New

Today's Extremes

State Highs State Lows

Community

WunderPhotos

Upload Photos

1,757,902 photos uploaded!

Nearby

Snow Depth

Station Depth Elevation
Fremont Pass 0 in 11400 ft
Rawah 5 in 9020 ft
Park Reservoir 0 in 9960 ft
Buckskin Joe 0 in 11150 ft
Cascade 0 in 8880 ft

Earthquake Activity

City Distance Mag. Time & Date
No recent earthquake activity has been reported nearby.
Minimum magnitude displayed is 2.5.

Coastal Water Temperatures

Place Temperature
No Stations Reporting

Nearby Weather Stations